KRAL/RAL METAR and TAF weather

Enter ICAO airport designator
Station Type Date Time Source
KRAL METAR 2020/08/11 00:53 UTC NOAA

KRAL 110053Z 27013KT 10SM CLR 31/13 A2986 RMK AO2 SLP095 T03060128


Station Type Date Time Source
KRAL Decoded METAR 2020/08/11 00:53 UTC NOAA

RIVERSIDE MUNICIPAL AIRPORT , CA, United States (KRAL) 33-57N 117-27W 252M
Aug 10, 2020 - 08:53 PM EDT / 2020.08.11 0053 UTC
Wind: from the W (270 degrees) at 15 MPH (13 KT):0
Visibility: 10 mile(s):0
Sky conditions: clear
Temperature: 87.1 F (30.6 C)
Dew Point: 55.0 F (12.8 C)
Relative Humidity: 33%
Pressure (altimeter): 29.86 in. Hg (1011 hPa)
ob: KRAL 110053Z 27013KT 10SM CLR 31/13 A2986 RMK AO2 SLP095 T03060128
cycle: 1

Station Type Date Time Source
KRAL TAF UTC NOAA

Error!

Example: see airport list